This is the latest recevied weather packets stored in our database for station/object KM5R. If no packets are shown the sender has not sent any weather packets the latest 10 day(s).
| Time | Temp. | Humidity | Pressure | Rain* | Wind** | Luminosity | Snow |
|---|---|---|---|---|---|---|---|
| 1777953851 | 22.78° C | 72% | 1009.8 hPa | 0 mm | - | 0 W/m² | - |
| 1777940815 | 26.67° C | 58% | 1009 hPa | 0 mm | - | 31 W/m² | - |
| 1777940210 | 26.67° C | 58% | 1008.9 hPa | 0 mm | - | 46 W/m² | - |
| 1777939908 | 26.67° C | 59% | 1009 hPa | 0 mm | - | 46 W/m² | - |
| 1777937481 | 27.22° C | 56% | 1009.2 hPa | 0 mm | - | 162 W/m² | - |
| 1777926573 | 26.11° C | 58% | 1011.6 hPa | 0 mm | - | 601 W/m² | - |
| 1777924147 | 26.11° C | 58% | 1012.6 hPa | 0 mm | - | 482 W/m² | - |
| 1777923539 | 26.11° C | 58% | 1012.6 hPa | 0 mm | - | 507 W/m² | - |
| 1777923236 | 25.56° C | 59% | 1012.7 hPa | 0 mm | - | 700 W/m² | - |
| 1777922935 | 25.56° C | 59% | 1012.2 hPa | 0 mm | - | 681 W/m² | - |
| 1777922632 | 25.56° C | 59% | 1012.9 hPa | 0 mm | - | 716 W/m² | - |
| 1777922330 | 26.11° C | 59% | 1012.7 hPa | 0 mm | - | 691 W/m² | - |
| 1777922029 | 25.56° C | 59% | 1012.9 hPa | 0 mm | - | 771 W/m² | - |
| 1777921729 | 25° C | 60% | 1012.9 hPa | 0 mm | - | 687 W/m² | - |
| 1777921425 | 25° C | 60% | 1012.9 hPa | 0 mm | - | 788 W/m² | - |
| 1777921122 | 25° C | 60% | 1013.1 hPa | 0 mm | - | 789 W/m² | - |
| 1777920819 | 25° C | 61% | 1013.2 hPa | 0 mm | - | 791 W/m² | - |
| 1777920515 | 25° C | 59% | 1013.5 hPa | 0 mm | - | 806 W/m² | - |
| 1777919907 | 24.44° C | 61% | 1013.8 hPa | 0 mm | - | 643 W/m² | - |
| 1777919604 | 25° C | 61% | 1013.6 hPa | 0 mm | - | 743 W/m² | - |
| 1777919302 | 24.44° C | 62% | 1013.6 hPa | 0 mm | - | 802 W/m² | - |
| 1777918999 | 25° C | 62% | 1013.5 hPa | 0 mm | - | 834 W/m² | - |
| 1777918696 | 24.44° C | 61% | 1013.5 hPa | 0 mm | - | 814 W/m² | - |
| 1777918394 | 24.44° C | 62% | 1013.7 hPa | 0 mm | - | 701 W/m² | - |
| 1777918092 | 24.44° C | 62% | 1014 hPa | 0 mm | - | 764 W/m² | - |
* Rain latest hour (hover to see other rain measurements)
** Current wind speed in m/s (hover to see current wind gust speed)